createdAt,value
2023-06-07T00:04:37.099Z,100600.61
2023-06-07T00:09:40.279Z,100599.47
2023-06-07T00:14:44.708Z,100596.98
2023-06-07T00:19:47.994Z,100597.51
2023-06-07T00:24:52.816Z,100598.91
2023-06-07T00:29:56.000Z,100599.73
2023-06-07T00:34:59.151Z,100602.02
2023-06-07T00:40:02.332Z,100606.27
2023-06-07T00:45:06.500Z,100604.05
2023-06-07T00:50:09.823Z,100600.10
2023-06-07T00:55:14.526Z,100604.10
2023-06-07T01:00:17.771Z,100601.09
2023-06-07T01:05:21.437Z,100600.89
2023-06-07T01:10:27.197Z,100595.42
2023-06-07T01:15:30.757Z,100591.70
2023-06-07T01:20:36.562Z,100588.34
2023-06-07T01:25:39.829Z,100589.53
2023-06-07T01:30:43.489Z,100590.34
2023-06-07T01:35:47.810Z,100588.30
2023-06-07T01:40:53.389Z,100590.10
2023-06-07T01:45:57.011Z,100590.23
2023-06-07T01:50:59.838Z,100588.94
2023-06-07T01:56:17.274Z,100588.64
2023-06-07T02:01:32.342Z,100589.24
2023-06-07T02:06:38.040Z,100589.79
2023-06-07T02:11:42.236Z,100590.95
2023-06-07T02:16:45.050Z,100589.08
2023-06-07T02:21:47.896Z,100588.00
2023-06-07T02:26:50.683Z,100586.54
2023-06-07T02:31:59.170Z,100584.68
2023-06-07T02:37:01.991Z,100584.92
2023-06-07T02:42:06.474Z,100585.39
2023-06-07T02:47:09.594Z,100590.57
2023-06-07T02:52:12.595Z,100593.39
2023-06-07T02:57:15.542Z,100590.88
2023-06-07T03:02:18.330Z,100595.02
2023-06-07T03:07:21.760Z,100595.55
2023-06-07T03:12:24.557Z,100603.02
2023-06-07T03:17:28.185Z,100602.04
2023-06-07T03:22:31.002Z,100604.98
2023-06-07T03:27:35.946Z,100605.23
2023-06-07T03:32:38.729Z,100604.15
2023-06-07T03:37:41.544Z,100603.44
2023-06-07T03:42:44.455Z,100609.80
2023-06-07T03:47:47.304Z,100613.68
2023-06-07T03:52:50.106Z,100611.64
2023-06-07T03:57:52.998Z,100614.40
2023-06-07T04:02:56.956Z,100616.54
2023-06-07T04:08:00.765Z,100618.60
2023-06-07T04:13:03.710Z,100620.20
2023-06-07T04:18:06.742Z,100620.80
2023-06-07T04:23:09.574Z,100616.27
2023-06-07T04:28:13.379Z,100618.15
2023-06-07T04:33:18.579Z,100616.58
2023-06-07T04:38:23.348Z,100613.93
2023-06-07T04:43:26.681Z,100618.94
2023-06-07T04:48:30.124Z,100619.01
2023-06-07T04:53:37.965Z,100621.80
2023-06-07T04:58:41.729Z,100620.73
2023-06-07T05:03:44.596Z,100616.49
2023-06-07T05:08:47.510Z,100614.70
2023-06-07T05:13:50.359Z,100615.77
2023-06-07T05:18:54.379Z,100620.79
2023-06-07T05:23:57.218Z,100620.34
2023-06-07T05:29:00.136Z,100624.59
2023-06-07T05:34:02.920Z,100625.90
2023-06-07T05:39:06.668Z,100624.77
2023-06-07T05:44:09.449Z,100621.92
2023-06-07T05:49:14.317Z,100631.24
2023-06-07T05:54:17.597Z,100633.88
2023-06-07T05:59:20.478Z,100628.55
2023-06-07T06:04:24.362Z,100632.49
2023-06-07T06:09:28.192Z,100636.49
2023-06-07T06:14:31.102Z,100638.13
2023-06-07T06:19:34.304Z,100637.39
2023-06-07T06:24:37.141Z,100640.33
2023-06-07T06:29:40.291Z,100641.95
2023-06-07T06:34:43.133Z,100640.03
2023-06-07T06:39:52.817Z,100641.62
2023-06-07T06:44:55.987Z,100640.23
2023-06-07T06:50:01.335Z,100638.96
2023-06-07T06:55:04.858Z,100638.38
2023-06-07T07:00:11.581Z,100643.88
2023-06-07T07:05:15.196Z,100639.80
2023-06-07T07:10:19.715Z,100646.75
2023-06-07T07:15:23.129Z,100646.17
2023-06-07T07:20:28.331Z,100645.61
2023-06-07T07:25:31.122Z,100647.30
2023-06-07T07:30:33.947Z,100643.34
2023-06-07T07:35:36.942Z,100644.30
2023-06-07T07:40:39.751Z,100645.32
2023-06-07T07:45:42.879Z,100641.46
2023-06-07T07:50:45.682Z,100641.52
2023-06-07T07:55:48.604Z,100640.87
2023-06-07T08:00:51.620Z,100646.08
2023-06-07T08:05:54.430Z,100642.81
2023-06-07T08:10:58.514Z,100645.16
2023-06-07T08:16:07.663Z,100640.27
2023-06-07T08:21:13.858Z,100646.10
2023-06-07T08:26:19.475Z,100641.05
2023-06-07T08:31:23.664Z,100640.09
2023-06-07T08:36:29.592Z,100634.63
2023-06-07T08:41:35.413Z,100628.63
2023-06-07T08:46:38.941Z,100628.26
2023-06-07T08:51:43.366Z,100629.80
2023-06-07T08:56:47.258Z,100633.36
2023-06-07T09:01:50.281Z,100631.15
2023-06-07T09:06:53.506Z,100635.77
2023-06-07T09:11:56.422Z,100635.05
2023-06-07T09:17:01.128Z,100635.34
2023-06-07T09:22:05.399Z,100632.94
2023-06-07T09:27:12.057Z,100633.35
2023-06-07T09:32:25.135Z,100630.49
2023-06-07T09:37:59.196Z,100638.63
2023-06-07T09:43:02.587Z,100634.27
2023-06-07T09:48:08.552Z,100633.01
2023-06-07T09:53:11.600Z,100631.42
2023-06-07T09:58:23.484Z,100631.61
2023-06-07T10:03:27.439Z,100627.08
2023-06-07T10:08:30.463Z,100627.23
2023-06-07T10:13:34.186Z,100627.36
2023-06-07T10:18:45.162Z,100616.12
2023-06-07T10:24:00.959Z,100614.00
2023-06-07T10:29:21.880Z,100610.71
2023-06-07T10:34:27.102Z,100601.02
2023-06-07T10:39:30.590Z,100598.77
2023-06-07T10:44:36.924Z,100594.58
2023-06-07T10:49:40.288Z,100592.20
2023-06-07T10:54:45.010Z,100598.40
2023-06-07T10:59:47.928Z,100597.86
2023-06-07T11:05:01.382Z,100594.39
2023-06-07T11:10:08.577Z,100584.60
2023-06-07T11:15:22.198Z,100582.57
2023-06-07T11:20:37.491Z,100584.97
2023-06-07T11:25:40.871Z,100580.67
2023-06-07T11:30:46.337Z,100581.39
2023-06-07T11:35:53.186Z,100576.61
2023-06-07T11:40:57.311Z,100573.27
2023-06-07T11:46:01.146Z,100569.30
2023-06-07T11:51:04.079Z,100574.24
2023-06-07T11:56:09.550Z,100568.66
2023-06-07T12:01:13.588Z,100563.10
2023-06-07T12:06:16.539Z,100556.20
2023-06-07T12:11:25.475Z,100558.05
2023-06-07T12:16:29.270Z,100553.08
2023-06-07T12:21:32.510Z,100543.51
2023-06-07T12:26:37.945Z,100543.76
2023-06-07T12:31:44.180Z,100542.55
2023-06-07T12:36:48.855Z,100538.63
2023-06-07T12:41:51.704Z,100543.05
2023-06-07T12:46:54.746Z,100536.60
2023-06-07T12:51:57.590Z,100539.00
2023-06-07T12:57:00.429Z,100537.23
2023-06-07T13:02:03.835Z,100536.05
2023-06-07T13:07:06.944Z,100531.80
2023-06-07T13:12:10.651Z,100526.58
2023-06-07T13:17:13.670Z,100521.45
2023-06-07T13:22:17.670Z,100516.41
2023-06-07T13:27:20.784Z,100508.31
2023-06-07T13:32:24.029Z,100505.91
2023-06-07T13:37:27.609Z,100499.09
2023-06-07T13:42:30.392Z,100497.27
2023-06-07T13:47:33.277Z,100484.30
2023-06-07T13:52:36.103Z,100485.61
2023-06-07T13:57:39.302Z,100488.05
2023-06-07T14:02:43.186Z,100486.99
2023-06-07T14:07:46.437Z,100480.53
2023-06-07T14:12:49.319Z,100477.71
2023-06-07T14:17:52.180Z,100474.79
2023-06-07T14:22:55.349Z,100472.73
2023-06-07T14:27:58.676Z,100465.84
2023-06-07T14:33:01.515Z,100469.63
2023-06-07T14:38:04.953Z,100469.49
2023-06-07T14:43:09.635Z,100465.16
2023-06-07T14:48:12.460Z,100466.64
2023-06-07T14:53:15.418Z,100463.73
2023-06-07T14:58:18.207Z,100459.08
2023-06-07T15:03:21.075Z,100461.02
2023-06-07T15:08:24.205Z,100456.03
2023-06-07T15:13:27.031Z,100450.97
2023-06-07T15:18:29.877Z,100443.24
2023-06-07T15:23:32.694Z,100442.61
2023-06-07T15:28:35.665Z,100434.58
2023-06-07T15:33:38.469Z,100430.99
2023-06-07T15:38:41.453Z,100431.16
2023-06-07T15:43:45.471Z,100433.72
2023-06-07T15:48:52.019Z,100434.55
2023-06-07T15:53:55.272Z,100436.89
2023-06-07T15:58:58.576Z,100439.26
2023-06-07T16:04:01.478Z,100439.55
2023-06-07T16:09:09.357Z,100444.89
2023-06-07T16:14:13.390Z,100447.95
2023-06-07T16:19:16.339Z,100447.89
2023-06-07T16:24:19.225Z,100442.09
2023-06-07T16:29:22.165Z,100441.14
2023-06-07T16:34:25.102Z,100436.05
2023-06-07T16:39:28.024Z,100436.23
2023-06-07T16:44:31.456Z,100436.23
2023-06-07T16:49:34.402Z,100436.44
2023-06-07T16:54:37.218Z,100441.08
2023-06-07T16:59:40.431Z,100444.04
2023-06-07T17:04:43.287Z,100441.11
2023-06-07T17:09:46.094Z,100441.98
2023-06-07T17:14:49.795Z,100439.14
2023-06-07T17:19:52.764Z,100445.85
2023-06-07T17:24:55.833Z,100446.77
2023-06-07T17:29:59.744Z,100449.41
2023-06-07T17:35:02.611Z,100450.40
2023-06-07T17:40:07.017Z,100448.84
2023-06-07T17:45:10.461Z,100449.36
2023-06-07T17:50:13.288Z,100450.04
2023-06-07T17:55:16.264Z,100454.56
2023-06-07T18:00:19.432Z,100455.11
2023-06-07T18:05:22.288Z,100459.09
2023-06-07T18:10:25.081Z,100460.05
2023-06-07T18:15:28.954Z,100460.17
2023-06-07T18:20:31.794Z,100464.17
2023-06-07T18:25:34.579Z,100469.98
2023-06-07T18:30:37.865Z,100474.83
2023-06-07T18:35:40.705Z,100481.58
2023-06-07T18:40:43.584Z,100482.82
2023-06-07T18:45:48.908Z,100485.13
2023-06-07T18:50:52.074Z,100488.69
2023-06-07T18:55:54.877Z,100486.23
2023-06-07T19:00:57.889Z,100496.92
2023-06-07T19:06:00.970Z,100502.23
2023-06-07T19:11:03.874Z,100508.27
2023-06-07T19:16:07.048Z,100508.60
2023-06-07T19:21:10.122Z,100513.45
2023-06-07T19:26:12.901Z,100519.42
2023-06-07T19:31:16.403Z,100525.34
2023-06-07T19:36:19.447Z,100525.56
2023-06-07T19:41:24.319Z,100529.66
2023-06-07T19:46:27.239Z,100532.32
2023-06-07T19:51:30.063Z,100528.13
2023-06-07T19:56:32.883Z,100528.09
2023-06-07T20:01:35.800Z,100527.46
2023-06-07T20:06:40.039Z,100529.52
2023-06-07T20:11:42.848Z,100531.80
2023-06-07T20:16:45.655Z,100530.22
2023-06-07T20:21:48.500Z,100526.92
2023-06-07T20:26:51.361Z,100528.13
2023-06-07T20:31:54.227Z,100528.10
2023-06-07T20:36:57.529Z,100527.21
2023-06-07T20:42:03.315Z,100526.29
2023-06-07T20:47:07.326Z,100532.11
2023-06-07T20:52:10.099Z,100531.84
2023-06-07T20:57:13.433Z,100524.77
2023-06-07T21:02:16.287Z,100528.05
2023-06-07T21:07:19.129Z,100528.08
2023-06-07T21:12:21.873Z,100532.36
2023-06-07T21:17:24.792Z,100533.53
2023-06-07T21:22:28.426Z,100531.33
2023-06-07T21:27:31.231Z,100532.42
2023-06-07T21:32:34.034Z,100535.20
2023-06-07T21:37:36.905Z,100534.16
2023-06-07T21:42:40.132Z,100532.11
2023-06-07T21:47:43.894Z,100528.44
2023-06-07T21:52:47.682Z,100531.55
2023-06-07T21:57:50.492Z,100530.35
2023-06-07T22:02:53.306Z,100531.56
2023-06-07T22:07:56.728Z,100533.42
2023-06-07T22:13:01.866Z,100533.32
2023-06-07T22:18:04.823Z,100537.20
2023-06-07T22:23:08.703Z,100534.29
2023-06-07T22:28:13.622Z,100530.02
2023-06-07T22:33:17.802Z,100526.31
2023-06-07T22:38:20.631Z,100529.45
2023-06-07T22:43:23.462Z,100528.42
2023-06-07T22:48:26.969Z,100536.16
2023-06-07T22:53:32.662Z,100534.55
2023-06-07T22:58:35.968Z,100532.91
2023-06-07T23:03:39.908Z,100523.36
2023-06-07T23:08:44.153Z,100523.66
2023-06-07T23:13:47.245Z,100518.08
2023-06-07T23:18:50.094Z,100519.70
2023-06-07T23:23:53.420Z,100516.82
2023-06-07T23:28:56.287Z,100516.12
2023-06-07T23:33:59.104Z,100509.70
2023-06-07T23:39:01.870Z,100507.48
2023-06-07T23:44:05.143Z,100499.50
2023-06-07T23:49:08.159Z,100494.21
2023-06-07T23:54:11.151Z,100499.95
2023-06-07T23:59:13.918Z,100498.20
